sensor_id;sensor_type;location;lat;lon;timestamp;P1;durP1;ratioP1;P2;durP2;ratioP2
6424;SDS011;12193;42.642;23.384;2023-05-19T00:01:48;6.03;;;4.57;;
6424;SDS011;12193;42.642;23.384;2023-05-19T00:04:18;7.27;;;4.90;;
6424;SDS011;12193;42.642;23.384;2023-05-19T03:08:49;16.13;;;9.77;;
6424;SDS011;12193;42.642;23.384;2023-05-19T03:11:19;14.27;;;8.80;;
6424;SDS011;12193;42.642;23.384;2023-05-19T03:13:49;15.47;;;9.03;;
6424;SDS011;12193;42.642;23.384;2023-05-19T03:16:18;14.50;;;9.13;;
6424;SDS011;12193;42.642;23.384;2023-05-19T03:18:47;13.23;;;8.87;;
6424;SDS011;12193;42.642;23.384;2023-05-19T03:21:16;13.63;;;8.90;;
6424;SDS011;12193;42.642;23.384;2023-05-19T03:23:46;14.97;;;9.37;;
6424;SDS011;12193;42.642;23.384;2023-05-19T03:26:19;17.37;;;9.73;;
6424;SDS011;12193;42.642;23.384;2023-05-19T03:28:49;16.57;;;9.27;;
6424;SDS011;12193;42.642;23.384;2023-05-19T03:31:19;15.33;;;9.47;;
6424;SDS011;12193;42.642;23.384;2023-05-19T03:33:48;16.70;;;9.67;;
6424;SDS011;12193;42.642;23.384;2023-05-19T03:36:17;16.70;;;9.47;;
6424;SDS011;12193;42.642;23.384;2023-05-19T03:38:49;18.63;;;10.10;;
6424;SDS011;12193;42.642;23.384;2023-05-19T03:41:18;16.73;;;10.17;;
6424;SDS011;12193;42.642;23.384;2023-05-19T03:43:48;16.10;;;9.57;;
6424;SDS011;12193;42.642;23.384;2023-05-19T03:46:17;17.00;;;10.27;;
6424;SDS011;12193;42.642;23.384;2023-05-19T03:48:47;20.63;;;10.67;;
6424;SDS011;12193;42.642;23.384;2023-05-19T03:51:16;17.90;;;10.70;;
6424;SDS011;12193;42.642;23.384;2023-05-19T03:53:45;16.00;;;9.70;;
6424;SDS011;12193;42.642;23.384;2023-05-19T03:56:17;15.93;;;9.53;;
6424;SDS011;12193;42.642;23.384;2023-05-19T03:58:48;15.80;;;9.33;;
6424;SDS011;12193;42.642;23.384;2023-05-19T04:01:19;18.77;;;10.30;;
6424;SDS011;12193;42.642;23.384;2023-05-19T04:03:49;19.07;;;10.40;;
6424;SDS011;12193;42.642;23.384;2023-05-19T04:06:18;15.53;;;9.83;;
6424;SDS011;12193;42.642;23.384;2023-05-19T04:08:48;16.30;;;10.07;;
6424;SDS011;12193;42.642;23.384;2023-05-19T04:11:20;17.90;;;9.30;;
6424;SDS011;12193;42.642;23.384;2023-05-19T04:13:49;14.43;;;9.37;;
6424;SDS011;12193;42.642;23.384;2023-05-19T04:16:19;15.47;;;10.20;;
6424;SDS011;12193;42.642;23.384;2023-05-19T04:18:48;18.03;;;10.47;;
6424;SDS011;12193;42.642;23.384;2023-05-19T04:21:17;16.57;;;9.90;;
6424;SDS011;12193;42.642;23.384;2023-05-19T04:23:47;16.67;;;9.80;;
6424;SDS011;12193;42.642;23.384;2023-05-19T04:26:16;15.67;;;9.23;;
6424;SDS011;12193;42.642;23.384;2023-05-19T04:28:50;15.60;;;9.77;;
6424;SDS011;12193;42.642;23.384;2023-05-19T04:31:21;16.20;;;9.33;;
6424;SDS011;12193;42.642;23.384;2023-05-19T04:33:51;12.20;;;8.30;;
6424;SDS011;12193;42.642;23.384;2023-05-19T04:36:20;14.27;;;8.90;;
6424;SDS011;12193;42.642;23.384;2023-05-19T04:38:49;15.27;;;9.77;;
6424;SDS011;12193;42.642;23.384;2023-05-19T04:41:19;17.47;;;9.90;;
6424;SDS011;12193;42.642;23.384;2023-05-19T04:43:51;15.37;;;8.50;;
6424;SDS011;12193;42.642;23.384;2023-05-19T04:46:22;15.97;;;8.73;;
6424;SDS011;12193;42.642;23.384;2023-05-19T04:48:51;14.57;;;8.73;;
6424;SDS011;12193;42.642;23.384;2023-05-19T04:51:22;15.37;;;8.50;;
6424;SDS011;12193;42.642;23.384;2023-05-19T04:53:53;14.60;;;9.00;;
6424;SDS011;12193;42.642;23.384;2023-05-19T04:56:22;15.70;;;8.63;;
6424;SDS011;12193;42.642;23.384;2023-05-19T04:58:54;16.70;;;9.20;;
6424;SDS011;12193;42.642;23.384;2023-05-19T05:01:24;14.07;;;8.80;;
6424;SDS011;12193;42.642;23.384;2023-05-19T05:03:55;13.77;;;8.67;;
6424;SDS011;12193;42.642;23.384;2023-05-19T05:06:27;14.27;;;8.87;;
6424;SDS011;12193;42.642;23.384;2023-05-19T05:08:56;14.97;;;9.30;;
6424;SDS011;12193;42.642;23.384;2023-05-19T05:11:26;14.40;;;8.50;;
6424;SDS011;12193;42.642;23.384;2023-05-19T05:13:58;12.60;;;8.20;;
6424;SDS011;12193;42.642;23.384;2023-05-19T05:16:28;13.27;;;8.97;;
6424;SDS011;12193;42.642;23.384;2023-05-19T05:18:59;14.00;;;8.40;;
6424;SDS011;12193;42.642;23.384;2023-05-19T05:21:29;20.17;;;8.40;;
6424;SDS011;12193;42.642;23.384;2023-05-19T05:23:59;13.53;;;8.40;;
6424;SDS011;12193;42.642;23.384;2023-05-19T05:26:29;12.07;;;8.33;;
6424;SDS011;12193;42.642;23.384;2023-05-19T05:29:03;12.83;;;8.23;;
6424;SDS011;12193;42.642;23.384;2023-05-19T05:31:33;11.73;;;8.37;;
6424;SDS011;12193;42.642;23.384;2023-05-19T05:34:02;13.30;;;7.90;;
6424;SDS011;12193;42.642;23.384;2023-05-19T05:36:31;13.40;;;7.90;;
6424;SDS011;12193;42.642;23.384;2023-05-19T05:39:01;14.90;;;8.83;;
6424;SDS011;12193;42.642;23.384;2023-05-19T05:41:30;13.57;;;8.03;;
6424;SDS011;12193;42.642;23.384;2023-05-19T05:44:01;12.47;;;8.47;;
6424;SDS011;12193;42.642;23.384;2023-05-19T05:46:32;12.10;;;7.90;;
6424;SDS011;12193;42.642;23.384;2023-05-19T05:49:02;21.20;;;8.50;;
6424;SDS011;12193;42.642;23.384;2023-05-19T05:51:32;18.77;;;8.50;;
6424;SDS011;12193;42.642;23.384;2023-05-19T05:54:02;16.30;;;8.20;;
6424;SDS011;12193;42.642;23.384;2023-05-19T05:56:34;13.57;;;8.33;;
6424;SDS011;12193;42.642;23.384;2023-05-19T05:59:06;11.93;;;7.77;;
6424;SDS011;12193;42.642;23.384;2023-05-19T06:01:36;15.30;;;7.70;;
6424;SDS011;12193;42.642;23.384;2023-05-19T06:04:06;17.63;;;9.23;;
6424;SDS011;12193;42.642;23.384;2023-05-19T06:06:36;14.50;;;7.57;;
6424;SDS011;12193;42.642;23.384;2023-05-19T06:09:05;15.93;;;8.13;;
6424;SDS011;12193;42.642;23.384;2023-05-19T06:11:34;12.53;;;7.67;;
6424;SDS011;12193;42.642;23.384;2023-05-19T06:14:07;10.33;;;7.37;;
6424;SDS011;12193;42.642;23.384;2023-05-19T06:16:36;10.97;;;7.57;;
6424;SDS011;12193;42.642;23.384;2023-05-19T06:19:06;15.77;;;7.90;;
6424;SDS011;12193;42.642;23.384;2023-05-19T06:21:35;12.73;;;7.87;;
6424;SDS011;12193;42.642;23.384;2023-05-19T06:24:04;13.63;;;7.80;;
6424;SDS011;12193;42.642;23.384;2023-05-19T06:26:34;12.53;;;7.80;;
6424;SDS011;12193;42.642;23.384;2023-05-19T06:29:06;18.43;;;8.40;;
6424;SDS011;12193;42.642;23.384;2023-05-19T06:31:36;11.93;;;7.17;;
6424;SDS011;12193;42.642;23.384;2023-05-19T06:34:05;38.30;;;9.77;;
6424;SDS011;12193;42.642;23.384;2023-05-19T06:36:35;18.50;;;9.17;;
6424;SDS011;12193;42.642;23.384;2023-05-19T06:39:06;11.47;;;6.93;;
6424;SDS011;12193;42.642;23.384;2023-05-19T06:41:35;16.30;;;8.20;;
6424;SDS011;12193;42.642;23.384;2023-05-19T06:44:07;12.17;;;7.53;;
6424;SDS011;12193;42.642;23.384;2023-05-19T06:46:36;11.00;;;7.03;;
6424;SDS011;12193;42.642;23.384;2023-05-19T06:49:05;11.03;;;7.00;;
6424;SDS011;12193;42.642;23.384;2023-05-19T06:51:35;12.67;;;7.27;;
6424;SDS011;12193;42.642;23.384;2023-05-19T06:54:04;9.97;;;6.53;;
6424;SDS011;12193;42.642;23.384;2023-05-19T06:56:36;9.70;;;6.60;;
6424;SDS011;12193;42.642;23.384;2023-05-19T06:59:07;10.47;;;6.60;;
6424;SDS011;12193;42.642;23.384;2023-05-19T07:01:37;10.10;;;6.03;;
6424;SDS011;12193;42.642;23.384;2023-05-19T07:04:06;10.13;;;6.67;;
6424;SDS011;12193;42.642;23.384;2023-05-19T07:06:35;9.20;;;6.30;;
6424;SDS011;12193;42.642;23.384;2023-05-19T07:09:04;11.87;;;6.73;;
6424;SDS011;12193;42.642;23.384;2023-05-19T07:11:33;14.60;;;6.70;;
6424;SDS011;12193;42.642;23.384;2023-05-19T07:14:03;11.90;;;6.77;;
6424;SDS011;12193;42.642;23.384;2023-05-19T07:16:35;10.87;;;6.67;;
6424;SDS011;12193;42.642;23.384;2023-05-19T07:19:04;10.10;;;6.70;;
6424;SDS011;12193;42.642;23.384;2023-05-19T07:21:33;13.20;;;7.20;;
6424;SDS011;12193;42.642;23.384;2023-05-19T07:24:02;10.67;;;6.73;;
6424;SDS011;12193;42.642;23.384;2023-05-19T07:26:32;9.07;;;5.97;;
6424;SDS011;12193;42.642;23.384;2023-05-19T07:29:01;11.23;;;6.70;;
6424;SDS011;12193;42.642;23.384;2023-05-19T07:31:31;13.60;;;6.80;;
6424;SDS011;12193;42.642;23.384;2023-05-19T07:34:03;10.87;;;7.17;;
6424;SDS011;12193;42.642;23.384;2023-05-19T07:36:33;12.43;;;7.03;;
6424;SDS011;12193;42.642;23.384;2023-05-19T07:39:02;11.90;;;6.80;;
6424;SDS011;12193;42.642;23.384;2023-05-19T07:41:31;12.30;;;6.63;;
6424;SDS011;12193;42.642;23.384;2023-05-19T07:44:01;13.27;;;6.87;;
6424;SDS011;12193;42.642;23.384;2023-05-19T07:46:32;15.03;;;7.03;;
6424;SDS011;12193;42.642;23.384;2023-05-19T07:49:04;12.43;;;6.87;;
6424;SDS011;12193;42.642;23.384;2023-05-19T07:51:34;14.40;;;7.30;;
6424;SDS011;12193;42.642;23.384;2023-05-19T07:54:03;16.00;;;7.83;;
6424;SDS011;12193;42.642;23.384;2023-05-19T07:56:33;14.43;;;7.43;;
6424;SDS011;12193;42.642;23.384;2023-05-19T07:59:02;13.90;;;7.10;;
6424;SDS011;12193;42.642;23.384;2023-05-19T08:01:32;11.97;;;7.23;;
6424;SDS011;12193;42.642;23.384;2023-05-19T08:04:02;11.13;;;7.50;;
6424;SDS011;12193;42.642;23.384;2023-05-19T08:06:33;11.77;;;7.57;;
6424;SDS011;12193;42.642;23.384;2023-05-19T08:09:03;9.40;;;7.43;;
6424;SDS011;12193;42.642;23.384;2023-05-19T08:11:33;12.50;;;7.83;;
6424;SDS011;12193;42.642;23.384;2023-05-19T08:14:02;13.10;;;8.10;;
6424;SDS011;12193;42.642;23.384;2023-05-19T08:16:31;16.13;;;7.73;;
6424;SDS011;12193;42.642;23.384;2023-05-19T08:19:00;14.77;;;7.90;;
6424;SDS011;12193;42.642;23.384;2023-05-19T08:21:34;11.53;;;7.57;;
6424;SDS011;12193;42.642;23.384;2023-05-19T08:24:04;10.70;;;7.73;;
6424;SDS011;12193;42.642;23.384;2023-05-19T08:26:33;14.67;;;8.20;;
6424;SDS011;12193;42.642;23.384;2023-05-19T08:29:03;14.43;;;7.97;;
6424;SDS011;12193;42.642;23.384;2023-05-19T08:31:32;15.47;;;7.80;;
6424;SDS011;12193;42.642;23.384;2023-05-19T08:34:01;14.57;;;8.50;;
6424;SDS011;12193;42.642;23.384;2023-05-19T08:36:31;13.40;;;7.53;;
6424;SDS011;12193;42.642;23.384;2023-05-19T08:39:02;14.13;;;8.43;;
6424;SDS011;12193;42.642;23.384;2023-05-19T08:41:32;17.10;;;8.40;;
6424;SDS011;12193;42.642;23.384;2023-05-19T08:44:01;13.83;;;8.77;;
6424;SDS011;12193;42.642;23.384;2023-05-19T08:46:30;10.60;;;7.83;;
6424;SDS011;12193;42.642;23.384;2023-05-19T08:49:00;17.00;;;8.80;;
6424;SDS011;12193;42.642;23.384;2023-05-19T08:51:39;16.40;;;8.83;;
6424;SDS011;12193;42.642;23.384;2023-05-19T08:54:15;17.63;;;8.37;;
6424;SDS011;12193;42.642;23.384;2023-05-19T08:56:45;13.00;;;8.90;;
6424;SDS011;12193;42.642;23.384;2023-05-19T08:59:15;13.67;;;8.70;;
6424;SDS011;12193;42.642;23.384;2023-05-19T09:01:46;13.53;;;7.93;;
6424;SDS011;12193;42.642;23.384;2023-05-19T09:04:16;15.93;;;8.50;;
6424;SDS011;12193;42.642;23.384;2023-05-19T09:06:48;13.93;;;8.97;;
6424;SDS011;12193;42.642;23.384;2023-05-19T09:09:17;16.50;;;8.83;;
6424;SDS011;12193;42.642;23.384;2023-05-19T09:11:46;15.67;;;10.00;;
6424;SDS011;12193;42.642;23.384;2023-05-19T09:14:16;13.97;;;9.13;;
6424;SDS011;12193;42.642;23.384;2023-05-19T09:16:45;17.57;;;9.87;;
6424;SDS011;12193;42.642;23.384;2023-05-19T09:19:17;20.67;;;10.77;;
6424;SDS011;12193;42.642;23.384;2023-05-19T09:21:54;17.57;;;9.57;;
6424;SDS011;12193;42.642;23.384;2023-05-19T09:24:28;19.57;;;9.57;;
6424;SDS011;12193;42.642;23.384;2023-05-19T09:26:57;17.20;;;9.77;;
6424;SDS011;12193;42.642;23.384;2023-05-19T09:29:27;16.30;;;9.57;;
6424;SDS011;12193;42.642;23.384;2023-05-19T09:31:56;16.60;;;9.47;;
6424;SDS011;12193;42.642;23.384;2023-05-19T09:34:29;16.13;;;9.90;;
6424;SDS011;12193;42.642;23.384;2023-05-19T09:37:01;14.07;;;8.97;;
6424;SDS011;12193;42.642;23.384;2023-05-19T09:39:31;16.83;;;9.43;;
6424;SDS011;12193;42.642;23.384;2023-05-19T09:42:02;15.57;;;9.50;;
6424;SDS011;12193;42.642;23.384;2023-05-19T09:44:33;17.23;;;8.90;;
6424;SDS011;12193;42.642;23.384;2023-05-19T09:47:03;16.23;;;9.20;;
6424;SDS011;12193;42.642;23.384;2023-05-19T09:49:32;15.30;;;8.63;;
6424;SDS011;12193;42.642;23.384;2023-05-19T09:52:05;15.60;;;9.20;;
6424;SDS011;12193;42.642;23.384;2023-05-19T09:54:35;15.73;;;9.33;;
6424;SDS011;12193;42.642;23.384;2023-05-19T09:57:05;15.63;;;8.60;;
6424;SDS011;12193;42.642;23.384;2023-05-19T09:59:35;12.57;;;8.43;;
6424;SDS011;12193;42.642;23.384;2023-05-19T10:02:04;14.97;;;9.40;;
6424;SDS011;12193;42.642;23.384;2023-05-19T10:04:37;12.37;;;8.83;;
6424;SDS011;12193;42.642;23.384;2023-05-19T10:07:09;14.77;;;8.97;;
6424;SDS011;12193;42.642;23.384;2023-05-19T10:09:40;13.27;;;9.23;;
6424;SDS011;12193;42.642;23.384;2023-05-19T10:12:10;16.90;;;9.70;;
6424;SDS011;12193;42.642;23.384;2023-05-19T10:14:41;15.73;;;9.10;;
6424;SDS011;12193;42.642;23.384;2023-05-19T10:17:10;13.87;;;8.90;;
6424;SDS011;12193;42.642;23.384;2023-05-19T10:19:40;14.37;;;8.77;;
6424;SDS011;12193;42.642;23.384;2023-05-19T10:22:14;12.77;;;8.40;;
6424;SDS011;12193;42.642;23.384;2023-05-19T10:24:44;15.53;;;8.83;;
6424;SDS011;12193;42.642;23.384;2023-05-19T10:27:13;14.27;;;9.10;;
6424;SDS011;12193;42.642;23.384;2023-05-19T10:29:44;16.00;;;8.73;;
6424;SDS011;12193;42.642;23.384;2023-05-19T10:32:18;14.20;;;8.70;;
6424;SDS011;12193;42.642;23.384;2023-05-19T10:37:57;15.77;;;9.10;;
6424;SDS011;12193;42.642;23.384;2023-05-19T10:40:35;12.13;;;8.53;;
6424;SDS011;12193;42.642;23.384;2023-05-19T10:43:14;15.73;;;8.90;;
6424;SDS011;12193;42.642;23.384;2023-05-19T10:45:50;16.57;;;9.37;;
6424;SDS011;12193;42.642;23.384;2023-05-19T10:48:21;13.00;;;8.77;;
6424;SDS011;12193;42.642;23.384;2023-05-19T10:50:51;11.00;;;8.13;;
6424;SDS011;12193;42.642;23.384;2023-05-19T10:53:29;13.80;;;8.50;;
6424;SDS011;12193;42.642;23.384;2023-05-19T10:56:00;12.57;;;8.67;;
6424;SDS011;12193;42.642;23.384;2023-05-19T11:01:19;15.30;;;8.40;;
6424;SDS011;12193;42.642;23.384;2023-05-19T11:03:50;15.33;;;8.40;;
6424;SDS011;12193;42.642;23.384;2023-05-19T11:06:25;14.30;;;8.20;;
6424;SDS011;12193;42.642;23.384;2023-05-19T11:08:58;14.90;;;8.07;;
6424;SDS011;12193;42.642;23.384;2023-05-19T11:11:43;13.90;;;8.60;;
6424;SDS011;12193;42.642;23.384;2023-05-19T11:14:14;14.10;;;8.50;;
6424;SDS011;12193;42.642;23.384;2023-05-19T11:16:46;16.53;;;8.23;;
6424;SDS011;12193;42.642;23.384;2023-05-19T11:19:16;11.83;;;8.50;;
6424;SDS011;12193;42.642;23.384;2023-05-19T11:21:47;13.50;;;8.10;;
6424;SDS011;12193;42.642;23.384;2023-05-19T11:24:34;13.83;;;7.93;;
6424;SDS011;12193;42.642;23.384;2023-05-19T11:30:08;11.03;;;7.80;;
6424;SDS011;12193;42.642;23.384;2023-05-19T11:32:39;15.47;;;8.20;;
6424;SDS011;12193;42.642;23.384;2023-05-19T11:35:09;13.03;;;8.40;;
6424;SDS011;12193;42.642;23.384;2023-05-19T11:37:39;13.43;;;7.60;;
6424;SDS011;12193;42.642;23.384;2023-05-19T11:40:11;13.27;;;8.20;;
6424;SDS011;12193;42.642;23.384;2023-05-19T11:42:43;12.47;;;7.43;;
6424;SDS011;12193;42.642;23.384;2023-05-19T11:45:12;15.23;;;8.70;;
6424;SDS011;12193;42.642;23.384;2023-05-19T11:47:44;17.27;;;8.87;;
6424;SDS011;12193;42.642;23.384;2023-05-19T11:50:14;13.47;;;7.63;;
6424;SDS011;12193;42.642;23.384;2023-05-19T11:52:45;14.40;;;8.07;;
6424;SDS011;12193;42.642;23.384;2023-05-19T11:55:17;14.73;;;9.40;;
6424;SDS011;12193;42.642;23.384;2023-05-19T11:57:55;17.00;;;9.53;;
6424;SDS011;12193;42.642;23.384;2023-05-19T12:00:25;17.20;;;9.20;;
6424;SDS011;12193;42.642;23.384;2023-05-19T12:02:55;13.70;;;7.77;;
6424;SDS011;12193;42.642;23.384;2023-05-19T12:05:25;10.67;;;6.53;;
6424;SDS011;12193;42.642;23.384;2023-05-19T12:07:54;11.30;;;6.30;;
6424;SDS011;12193;42.642;23.384;2023-05-19T12:10:28;7.93;;;4.70;;
6424;SDS011;12193;42.642;23.384;2023-05-19T12:12:59;9.50;;;5.60;;
6424;SDS011;12193;42.642;23.384;2023-05-19T12:15:30;10.07;;;6.10;;
6424;SDS011;12193;42.642;23.384;2023-05-19T12:18:01;10.37;;;5.73;;
6424;SDS011;12193;42.642;23.384;2023-05-19T12:20:30;8.87;;;5.03;;
6424;SDS011;12193;42.642;23.384;2023-05-19T12:23:00;11.17;;;6.40;;
6424;SDS011;12193;42.642;23.384;2023-05-19T12:25:33;9.00;;;5.83;;
6424;SDS011;12193;42.642;23.384;2023-05-19T12:28:03;9.10;;;5.93;;
6424;SDS011;12193;42.642;23.384;2023-05-19T12:30:33;8.63;;;5.77;;
6424;SDS011;12193;42.642;23.384;2023-05-19T12:33:02;10.03;;;5.90;;
6424;SDS011;12193;42.642;23.384;2023-05-19T12:35:31;10.63;;;6.00;;
6424;SDS011;12193;42.642;23.384;2023-05-19T12:38:04;9.57;;;6.13;;
6424;SDS011;12193;42.642;23.384;2023-05-19T12:40:37;9.70;;;6.23;;
6424;SDS011;12193;42.642;23.384;2023-05-19T12:43:07;9.77;;;6.47;;
6424;SDS011;12193;42.642;23.384;2023-05-19T12:45:38;13.13;;;6.80;;
6424;SDS011;12193;42.642;23.384;2023-05-19T12:48:09;10.97;;;6.60;;
6424;SDS011;12193;42.642;23.384;2023-05-19T12:50:41;9.70;;;6.30;;
6424;SDS011;12193;42.642;23.384;2023-05-19T12:53:11;8.87;;;6.43;;
6424;SDS011;12193;42.642;23.384;2023-05-19T12:55:44;10.00;;;6.50;;
6424;SDS011;12193;42.642;23.384;2023-05-19T12:58:14;11.30;;;6.67;;
6424;SDS011;12193;42.642;23.384;2023-05-19T13:00:44;8.13;;;6.03;;
6424;SDS011;12193;42.642;23.384;2023-05-19T13:03:15;9.00;;;5.57;;
6424;SDS011;12193;42.642;23.384;2023-05-19T13:05:45;7.70;;;5.50;;
6424;SDS011;12193;42.642;23.384;2023-05-19T13:08:16;7.87;;;4.93;;
6424;SDS011;12193;42.642;23.384;2023-05-19T13:10:49;8.93;;;5.57;;
6424;SDS011;12193;42.642;23.384;2023-05-19T13:13:19;11.70;;;5.73;;
6424;SDS011;12193;42.642;23.384;2023-05-19T13:15:48;8.67;;;6.00;;
6424;SDS011;12193;42.642;23.384;2023-05-19T13:18:18;8.40;;;5.77;;
6424;SDS011;12193;42.642;23.384;2023-05-19T13:20:47;7.87;;;5.30;;
6424;SDS011;12193;42.642;23.384;2023-05-19T13:23:17;7.27;;;5.47;;
6424;SDS011;12193;42.642;23.384;2023-05-19T13:25:49;7.97;;;5.40;;
6424;SDS011;12193;42.642;23.384;2023-05-19T13:28:18;9.00;;;5.53;;
6424;SDS011;12193;42.642;23.384;2023-05-19T13:30:48;8.37;;;5.20;;
6424;SDS011;12193;42.642;23.384;2023-05-19T13:33:17;8.63;;;5.70;;
6424;SDS011;12193;42.642;23.384;2023-05-19T13:35:46;10.50;;;5.67;;
6424;SDS011;12193;42.642;23.384;2023-05-19T13:38:16;10.50;;;6.43;;
6424;SDS011;12193;42.642;23.384;2023-05-19T13:40:45;10.10;;;6.30;;
6424;SDS011;12193;42.642;23.384;2023-05-19T13:43:17;10.40;;;6.23;;
6424;SDS011;12193;42.642;23.384;2023-05-19T13:45:46;11.37;;;6.10;;
6424;SDS011;12193;42.642;23.384;2023-05-19T13:48:16;12.07;;;6.07;;
6424;SDS011;12193;42.642;23.384;2023-05-19T13:50:45;12.83;;;6.90;;
6424;SDS011;12193;42.642;23.384;2023-05-19T13:53:17;7.27;;;5.87;;
6424;SDS011;12193;42.642;23.384;2023-05-19T13:55:46;9.53;;;6.40;;
6424;SDS011;12193;42.642;23.384;2023-05-19T13:58:20;10.73;;;6.40;;
6424;SDS011;12193;42.642;23.384;2023-05-19T14:00:49;11.80;;;6.10;;
6424;SDS011;12193;42.642;23.384;2023-05-19T14:03:20;10.47;;;6.67;;
6424;SDS011;12193;42.642;23.384;2023-05-19T14:05:50;12.10;;;7.03;;
6424;SDS011;12193;42.642;23.384;2023-05-19T14:08:19;9.60;;;6.67;;
6424;SDS011;12193;42.642;23.384;2023-05-19T14:10:49;10.80;;;6.97;;
6424;SDS011;12193;42.642;23.384;2023-05-19T14:13:21;10.33;;;6.90;;
6424;SDS011;12193;42.642;23.384;2023-05-19T14:15:51;11.13;;;6.80;;
6424;SDS011;12193;42.642;23.384;2023-05-19T14:18:21;11.20;;;6.37;;
6424;SDS011;12193;42.642;23.384;2023-05-19T14:20:50;12.17;;;6.97;;
6424;SDS011;12193;42.642;23.384;2023-05-19T14:23:19;10.07;;;6.40;;
6424;SDS011;12193;42.642;23.384;2023-05-19T14:25:49;9.67;;;6.33;;
6424;SDS011;12193;42.642;23.384;2023-05-19T14:28:20;10.83;;;6.33;;
6424;SDS011;12193;42.642;23.384;2023-05-19T14:30:50;10.43;;;6.93;;
6424;SDS011;12193;42.642;23.384;2023-05-19T14:33:19;11.50;;;6.53;;
6424;SDS011;12193;42.642;23.384;2023-05-19T14:35:48;9.93;;;7.30;;
6424;SDS011;12193;42.642;23.384;2023-05-19T14:38:17;10.43;;;6.93;;
6424;SDS011;12193;42.642;23.384;2023-05-19T14:40:47;9.93;;;6.53;;
6424;SDS011;12193;42.642;23.384;2023-05-19T14:43:16;10.47;;;6.90;;
6424;SDS011;12193;42.642;23.384;2023-05-19T14:45:48;9.67;;;6.53;;
6424;SDS011;12193;42.642;23.384;2023-05-19T14:48:17;12.30;;;7.20;;
6424;SDS011;12193;42.642;23.384;2023-05-19T14:50:47;12.87;;;7.00;;
6424;SDS011;12193;42.642;23.384;2023-05-19T14:53:16;10.47;;;6.90;;
6424;SDS011;12193;42.642;23.384;2023-05-19T14:55:46;12.33;;;6.70;;
6424;SDS011;12193;42.642;23.384;2023-05-19T14:58:15;9.07;;;6.00;;
6424;SDS011;12193;42.642;23.384;2023-05-19T15:00:44;8.53;;;6.10;;
6424;SDS011;12193;42.642;23.384;2023-05-19T15:03:17;10.57;;;6.20;;
6424;SDS011;12193;42.642;23.384;2023-05-19T15:05:48;9.20;;;6.03;;
6424;SDS011;12193;42.642;23.384;2023-05-19T15:08:17;9.67;;;5.80;;
6424;SDS011;12193;42.642;23.384;2023-05-19T15:10:47;10.93;;;6.57;;
6424;SDS011;12193;42.642;23.384;2023-05-19T15:13:16;10.27;;;6.40;;
6424;SDS011;12193;42.642;23.384;2023-05-19T15:15:48;11.13;;;6.90;;
6424;SDS011;12193;42.642;23.384;2023-05-19T15:18:22;9.87;;;6.23;;
6424;SDS011;12193;42.642;23.384;2023-05-19T15:20:51;8.53;;;6.10;;
6424;SDS011;12193;42.642;23.384;2023-05-19T15:23:21;10.27;;;6.03;;
6424;SDS011;12193;42.642;23.384;2023-05-19T15:25:50;9.80;;;6.23;;
6424;SDS011;12193;42.642;23.384;2023-05-19T15:28:19;8.90;;;6.07;;
6424;SDS011;12193;42.642;23.384;2023-05-19T15:30:51;11.87;;;6.03;;
6424;SDS011;12193;42.642;23.384;2023-05-19T15:33:20;9.50;;;6.33;;
6424;SDS011;12193;42.642;23.384;2023-05-19T15:35:49;9.53;;;6.53;;
6424;SDS011;12193;42.642;23.384;2023-05-19T15:38:19;10.30;;;6.40;;
6424;SDS011;12193;42.642;23.384;2023-05-19T15:40:48;10.70;;;6.40;;
6424;SDS011;12193;42.642;23.384;2023-05-19T15:43:17;13.07;;;6.37;;
6424;SDS011;12193;42.642;23.384;2023-05-19T15:45:47;13.70;;;6.90;;
6424;SDS011;12193;42.642;23.384;2023-05-19T15:48:22;9.47;;;6.10;;
6424;SDS011;12193;42.642;23.384;2023-05-19T15:50:53;12.03;;;6.30;;
6424;SDS011;12193;42.642;23.384;2023-05-19T15:53:23;10.10;;;6.47;;
6424;SDS011;12193;42.642;23.384;2023-05-19T15:55:52;10.73;;;6.53;;
6424;SDS011;12193;42.642;23.384;2023-05-19T15:58:22;10.00;;;6.63;;
6424;SDS011;12193;42.642;23.384;2023-05-19T16:00:51;9.60;;;6.30;;
6424;SDS011;12193;42.642;23.384;2023-05-19T16:03:23;10.07;;;6.37;;
6424;SDS011;12193;42.642;23.384;2023-05-19T16:05:52;11.20;;;6.47;;
6424;SDS011;12193;42.642;23.384;2023-05-19T16:08:21;9.63;;;6.50;;
6424;SDS011;12193;42.642;23.384;2023-05-19T16:10:51;7.80;;;6.30;;
6424;SDS011;12193;42.642;23.384;2023-05-19T16:13:21;12.03;;;6.60;;
6424;SDS011;12193;42.642;23.384;2023-05-19T16:15:50;9.30;;;6.60;;
6424;SDS011;12193;42.642;23.384;2023-05-19T16:18:19;10.47;;;7.30;;
6424;SDS011;12193;42.642;23.384;2023-05-19T16:20:52;10.30;;;7.10;;
6424;SDS011;12193;42.642;23.384;2023-05-19T16:23:21;11.67;;;7.40;;
6424;SDS011;12193;42.642;23.384;2023-05-19T16:25:52;10.63;;;7.33;;
6424;SDS011;12193;42.642;23.384;2023-05-19T16:28:22;15.93;;;9.63;;
6424;SDS011;12193;42.642;23.384;2023-05-19T16:30:55;8.83;;;6.50;;
6424;SDS011;12193;42.642;23.384;2023-05-19T16:33:27;14.00;;;6.90;;
6424;SDS011;12193;42.642;23.384;2023-05-19T16:35:56;10.73;;;7.00;;
6424;SDS011;12193;42.642;23.384;2023-05-19T16:38:26;13.07;;;7.20;;
6424;SDS011;12193;42.642;23.384;2023-05-19T16:40:55;9.70;;;6.57;;
6424;SDS011;12193;42.642;23.384;2023-05-19T16:43:24;11.73;;;6.90;;
6424;SDS011;12193;42.642;23.384;2023-05-19T16:45:54;10.90;;;6.87;;
6424;SDS011;12193;42.642;23.384;2023-05-19T16:48:23;10.57;;;6.80;;
6424;SDS011;12193;42.642;23.384;2023-05-19T16:50:55;12.57;;;7.33;;
6424;SDS011;12193;42.642;23.384;2023-05-19T16:53:24;12.00;;;7.13;;
6424;SDS011;12193;42.642;23.384;2023-05-19T16:55:53;11.77;;;7.10;;
6424;SDS011;12193;42.642;23.384;2023-05-19T16:58:23;9.93;;;6.27;;
6424;SDS011;12193;42.642;23.384;2023-05-19T17:00:53;12.63;;;7.00;;
6424;SDS011;12193;42.642;23.384;2023-05-19T17:03:22;13.07;;;7.03;;
6424;SDS011;12193;42.642;23.384;2023-05-19T17:05:51;12.33;;;7.50;;
6424;SDS011;12193;42.642;23.384;2023-05-19T17:08:23;12.70;;;7.23;;
6424;SDS011;12193;42.642;23.384;2023-05-19T17:10:52;12.53;;;7.30;;
6424;SDS011;12193;42.642;23.384;2023-05-19T17:13:22;11.53;;;7.23;;
6424;SDS011;12193;42.642;23.384;2023-05-19T17:15:53;13.87;;;8.03;;
6424;SDS011;12193;42.642;23.384;2023-05-19T17:18:22;15.57;;;8.07;;
6424;SDS011;12193;42.642;23.384;2023-05-19T17:20:51;15.77;;;8.50;;
6424;SDS011;12193;42.642;23.384;2023-05-19T17:23:23;15.97;;;8.33;;
6424;SDS011;12193;42.642;23.384;2023-05-19T17:25:52;15.17;;;9.43;;
6424;SDS011;12193;42.642;23.384;2023-05-19T17:28:22;17.00;;;8.70;;
6424;SDS011;12193;42.642;23.384;2023-05-19T17:30:51;14.77;;;9.13;;
6424;SDS011;12193;42.642;23.384;2023-05-19T17:33:21;15.80;;;9.03;;
6424;SDS011;12193;42.642;23.384;2023-05-19T17:35:50;13.40;;;8.73;;
6424;SDS011;12193;42.642;23.384;2023-05-19T17:38:19;14.83;;;8.13;;
6424;SDS011;12193;42.642;23.384;2023-05-19T17:40:51;13.70;;;8.30;;
6424;SDS011;12193;42.642;23.384;2023-05-19T17:43:24;15.47;;;8.80;;
6424;SDS011;12193;42.642;23.384;2023-05-19T17:45:54;17.27;;;8.87;;
6424;SDS011;12193;42.642;23.384;2023-05-19T17:48:24;15.50;;;8.60;;
6424;SDS011;12193;42.642;23.384;2023-05-19T17:50:53;13.30;;;8.37;;
6424;SDS011;12193;42.642;23.384;2023-05-19T17:53:22;12.70;;;8.93;;
6424;SDS011;12193;42.642;23.384;2023-05-19T17:55:56;13.47;;;8.57;;
6424;SDS011;12193;42.642;23.384;2023-05-19T17:58:26;11.83;;;7.93;;
6424;SDS011;12193;42.642;23.384;2023-05-19T18:00:56;14.80;;;8.63;;
6424;SDS011;12193;42.642;23.384;2023-05-19T18:03:26;15.27;;;8.80;;
6424;SDS011;12193;42.642;23.384;2023-05-19T18:05:56;14.77;;;8.70;;